NOTL Parkway

*Note: All times are displayed in the local standard time of the station location.
**Rain - Equipment is designed to accurately record liquid precipitation; under conditions when precipitation is not in liquid form, the data displayed may not properly reflect rainfall values.

Date Max Temp
(°C)
Min Temp
(°C)
Avg Temp
(°C)
Rain (mm) Avg RH (%)
Sat, Feb 17, 2018 -0.5 -6.5 -2.7 0.0 70.5
Fri, Feb 16, 2018 4.4 -5.0 0.4 0.0 78.9
Thu, Feb 15, 2018 10.0 3.0 6.7 0.2 94.8
Wed, Feb 14, 2018 5.2 -5.8 2.6 6.4 76.3
Tue, Feb 13, 2018 0.2 -13.9 -6.6 0.2 75.3
Mon, Feb 12, 2018 -1.6 -6.3 -3.7 0.2 70.9
Sun, Feb 11, 2018 0.7 -3.7 -1.5 4.8 92.4
DateTime Avg Temp (°C) Rain (mm) RH (%)
Sun, Feb 18, 2018 04:00 -2.1 0.0 87.8
Sun, Feb 18, 2018 03:00 -1.3 0.0 84.8
Sun, Feb 18, 2018 02:00 -1.4 0.0 88.3
Sun, Feb 18, 2018 01:00 -1.5 0.0 87.5
Sun, Feb 18, 2018 00:00 -1.3 0.0 83.3
Sat, Feb 17, 2018 23:00 -1.2 0.0 75.5
Sat, Feb 17, 2018 22:00 -1.3 0.0 71.5
Sat, Feb 17, 2018 21:00 -1.6 0.0 69.3
Sat, Feb 17, 2018 20:00 -1.5 0.0 66.5
Sat, Feb 17, 2018 19:00 -1.3 0.0 62.3
Sat, Feb 17, 2018 18:00 -1.1 0.0 58.5
Sat, Feb 17, 2018 17:00 -1.0 0.0 58.3
Sat, Feb 17, 2018 16:00 -0.9 0.0 57.8
Sat, Feb 17, 2018 15:00 -0.8 0.0 59.8
Sat, Feb 17, 2018 14:00 -0.7 0.0 59.0
Sat, Feb 17, 2018 13:00 -0.7 0.0 59.0
Sat, Feb 17, 2018 12:00 -1.0 0.0 62.0
Sat, Feb 17, 2018 11:00 -1.5 0.0 64.0
Sat, Feb 17, 2018 10:00 -2.2 0.0 68.0
Sat, Feb 17, 2018 09:00 -3.5 0.0 73.3
Sat, Feb 17, 2018 08:00 -4.8 0.0 79.3
Sat, Feb 17, 2018 07:00 -5.1 0.0 78.0
Sat, Feb 17, 2018 06:00 -4.9 0.0 77.5
Sat, Feb 17, 2018 05:00 -5.3 0.0 80.8
Sat, Feb 17, 2018 04:00 -5.4 0.0 82.3
Sat, Feb 17, 2018 03:00 -6.3 0.0 84.5
Sat, Feb 17, 2018 02:00 -6.1 0.0 82.5
Sat, Feb 17, 2018 01:00 -5.3 0.0 79.3
Sat, Feb 17, 2018 00:00 -4.9 0.0 74.8
Fri, Feb 16, 2018 23:00 -4.1 0.0 71.5
Fri, Feb 16, 2018 22:00 -3.6 0.0 65.8
Fri, Feb 16, 2018 21:00 -3.4 0.0 64.3
Fri, Feb 16, 2018 20:00 -3.1 0.0 62.5
Fri, Feb 16, 2018 19:00 -2.7 0.0 59.8
Fri, Feb 16, 2018 18:00 -2.0 0.0 61.8
Fri, Feb 16, 2018 17:00 -0.2 0.0 60.5
Fri, Feb 16, 2018 16:00 0.0 0.0 66.5
Fri, Feb 16, 2018 15:00 2.0 0.0 58.8
Fri, Feb 16, 2018 14:00 2.1 0.0 64.0
Fri, Feb 16, 2018 13:00 2.1 0.0 71.8
Fri, Feb 16, 2018 12:00 1.8 0.0 82.3
Fri, Feb 16, 2018 11:00 1.0 0.0 91.3
Fri, Feb 16, 2018 10:00 1.6 0.0 88.0
Fri, Feb 16, 2018 09:00 1.5 0.0 88.5
Fri, Feb 16, 2018 08:00 1.8 0.0 90.0
Fri, Feb 16, 2018 07:00 2.4 0.0 89.5
Fri, Feb 16, 2018 06:00 2.5 0.0 88.3
Fri, Feb 16, 2018 05:00 2.6 0.0 93.3


asterix Register now to access more data! asterix